createdAt,value
2022-12-03T00:00:26.340Z,3.33
2022-12-03T00:00:57.921Z,3.30
2022-12-03T00:01:29.471Z,3.37
2022-12-03T00:02:01.057Z,3.41
2022-12-03T00:02:32.845Z,3.45
2022-12-03T00:03:04.730Z,3.38
2022-12-03T00:03:36.770Z,3.40
2022-12-03T00:04:08.515Z,3.40
2022-12-03T00:04:40.131Z,3.47
2022-12-03T00:05:12.003Z,3.45
2022-12-03T00:05:48.784Z,3.40
2022-12-03T00:06:20.890Z,3.44
2022-12-03T00:06:52.579Z,3.37
2022-12-03T00:07:24.261Z,3.41
2022-12-03T00:07:55.921Z,3.40
2022-12-03T00:08:27.623Z,3.35
2022-12-03T00:08:59.207Z,3.40
2022-12-03T00:09:30.820Z,3.34
2022-12-03T00:10:02.408Z,3.23
2022-12-03T00:10:34.012Z,3.21
2022-12-03T00:11:05.692Z,3.23
2022-12-03T00:11:37.272Z,3.20
2022-12-03T00:12:08.874Z,3.31
2022-12-03T00:12:40.608Z,3.30
2022-12-03T00:13:12.235Z,3.33
2022-12-03T00:13:43.869Z,3.35
2022-12-03T00:14:15.463Z,3.34
2022-12-03T00:14:47.092Z,3.34
2022-12-03T00:15:18.724Z,3.38
2022-12-03T00:15:50.329Z,3.35
2022-12-03T00:16:22.081Z,3.35
2022-12-03T00:16:53.738Z,3.41
2022-12-03T00:17:25.352Z,3.42
2022-12-03T00:17:56.929Z,3.47
2022-12-03T00:18:28.554Z,3.47
2022-12-03T00:19:00.119Z,3.37
2022-12-03T00:19:31.668Z,3.40
2022-12-03T00:20:04.534Z,3.41
2022-12-03T00:20:36.166Z,3.50
2022-12-03T00:21:07.706Z,3.50
2022-12-03T00:21:39.248Z,3.45
2022-12-03T00:22:12.671Z,3.47
2022-12-03T00:22:44.475Z,3.44
2022-12-03T00:23:16.022Z,3.38
2022-12-03T00:23:47.714Z,3.42
2022-12-03T00:24:19.274Z,3.44
2022-12-03T00:24:51.321Z,3.35
2022-12-03T00:25:23.220Z,3.40
2022-12-03T00:25:54.866Z,3.37
2022-12-03T00:26:26.450Z,3.41
2022-12-03T00:26:58.086Z,3.41
2022-12-03T00:27:29.646Z,3.48
2022-12-03T00:28:01.194Z,3.50
2022-12-03T00:28:32.744Z,3.35
2022-12-03T00:29:04.337Z,3.35
2022-12-03T00:29:35.950Z,3.42
2022-12-03T00:30:08.535Z,3.42
2022-12-03T00:30:40.200Z,3.44
2022-12-03T00:31:11.830Z,3.38
2022-12-03T00:31:45.543Z,3.35
2022-12-03T00:32:17.298Z,3.47
2022-12-03T00:32:48.911Z,3.48
2022-12-03T00:33:21.783Z,3.44
2022-12-03T00:33:53.669Z,3.47
2022-12-03T00:34:25.241Z,3.48
2022-12-03T00:34:56.856Z,3.44
2022-12-03T00:35:28.444Z,3.51
2022-12-03T00:36:00.027Z,3.52
2022-12-03T00:36:31.622Z,3.57
2022-12-03T00:37:03.258Z,3.58
2022-12-03T00:37:35.352Z,3.45
2022-12-03T00:38:06.952Z,3.37
2022-12-03T00:38:38.543Z,3.35
2022-12-03T00:39:10.155Z,3.35
2022-12-03T00:39:41.723Z,3.42
2022-12-03T00:40:13.663Z,3.40
2022-12-03T00:40:45.336Z,3.35
2022-12-03T00:41:16.878Z,3.35
2022-12-03T00:41:48.462Z,3.44
2022-12-03T00:42:20.036Z,3.45
2022-12-03T00:42:51.615Z,3.50
2022-12-03T00:43:23.180Z,3.52
2022-12-03T00:43:57.629Z,3.52
2022-12-03T00:44:29.235Z,3.50
2022-12-03T00:45:00.892Z,3.45
2022-12-03T00:45:32.428Z,3.38
2022-12-03T00:46:04.046Z,3.35
2022-12-03T00:46:35.771Z,3.35
2022-12-03T00:47:07.374Z,3.38
2022-12-03T00:47:38.947Z,3.40
2022-12-03T00:48:10.499Z,3.41
2022-12-03T00:48:42.129Z,3.42
2022-12-03T00:49:13.687Z,3.41
2022-12-03T00:49:45.233Z,3.41
2022-12-03T00:50:16.983Z,3.47
2022-12-03T00:50:48.596Z,3.47
2022-12-03T00:51:20.157Z,3.54
2022-12-03T00:51:52.467Z,3.44
2022-12-03T00:52:24.064Z,3.40
2022-12-03T00:52:55.703Z,3.45
2022-12-03T00:53:27.446Z,3.38
2022-12-03T00:53:59.024Z,3.41
2022-12-03T00:54:32.271Z,3.40
2022-12-03T00:55:04.462Z,3.37
2022-12-03T00:55:36.038Z,3.30
2022-12-03T00:56:08.190Z,3.33
2022-12-03T00:56:39.734Z,3.31
2022-12-03T00:57:11.282Z,3.27
2022-12-03T00:57:42.830Z,3.28
2022-12-03T00:58:14.412Z,3.23
2022-12-03T00:58:46.082Z,3.19
2022-12-03T00:59:17.708Z,3.24
2022-12-03T00:59:49.295Z,3.31
2022-12-03T01:00:24.814Z,3.28
2022-12-03T01:00:56.430Z,3.37
2022-12-03T01:01:28.077Z,3.33
2022-12-03T01:01:59.855Z,3.35
2022-12-03T01:02:31.801Z,3.35
2022-12-03T01:03:04.816Z,3.42
2022-12-03T01:03:36.425Z,3.42
2022-12-03T01:04:08.110Z,3.47
2022-12-03T01:04:39.817Z,3.45
2022-12-03T01:05:11.519Z,3.37
2022-12-03T01:05:43.108Z,3.40
2022-12-03T01:06:14.728Z,3.37
2022-12-03T01:06:46.320Z,3.35
2022-12-03T01:07:17.960Z,3.34
2022-12-03T01:07:49.610Z,3.37
2022-12-03T01:08:21.194Z,3.35
2022-12-03T01:08:52.776Z,3.28
2022-12-03T01:09:24.342Z,3.27
2022-12-03T01:09:55.938Z,3.33
2022-12-03T01:10:27.487Z,3.24
2022-12-03T01:10:59.098Z,3.31
2022-12-03T01:11:39.715Z,3.26
2022-12-03T01:12:12.117Z,3.20
2022-12-03T01:12:43.880Z,3.28
2022-12-03T01:13:15.452Z,3.27
2022-12-03T01:13:46.987Z,3.24
2022-12-03T01:14:19.716Z,3.20
2022-12-03T01:14:51.675Z,3.27
2022-12-03T01:15:23.451Z,3.26
2022-12-03T01:15:55.173Z,3.28
2022-12-03T01:16:26.948Z,3.34
2022-12-03T01:16:58.653Z,3.37
2022-12-03T01:17:30.314Z,3.33
2022-12-03T01:18:01.946Z,3.35
2022-12-03T01:18:33.526Z,3.27
2022-12-03T01:19:06.738Z,3.30
2022-12-03T01:19:42.233Z,3.31
2022-12-03T01:20:16.501Z,3.28
2022-12-03T01:20:48.092Z,3.21
2022-12-03T01:21:19.910Z,3.20
2022-12-03T01:21:51.912Z,3.21
2022-12-03T01:22:23.498Z,3.21
2022-12-03T01:22:55.082Z,3.17
2022-12-03T01:23:26.680Z,3.28
2022-12-03T01:23:58.347Z,3.30
2022-12-03T01:24:29.920Z,3.30
2022-12-03T01:25:01.675Z,3.23
2022-12-03T01:25:33.334Z,3.24
2022-12-03T01:26:05.066Z,3.28
2022-12-03T01:26:36.728Z,3.27
2022-12-03T01:27:08.314Z,3.30
2022-12-03T01:27:39.855Z,3.31
2022-12-03T01:28:11.514Z,3.24
2022-12-03T01:28:43.127Z,3.27
2022-12-03T01:29:14.952Z,3.26
2022-12-03T01:29:46.506Z,3.19
2022-12-03T01:30:18.142Z,3.17
2022-12-03T01:31:08.191Z,3.24
2022-12-03T01:31:58.321Z,3.27
2022-12-03T01:32:29.972Z,3.41
2022-12-03T01:33:01.513Z,3.40
2022-12-03T01:33:33.094Z,3.42
2022-12-03T01:34:05.309Z,3.47
2022-12-03T01:34:36.974Z,3.40
2022-12-03T01:35:09.000Z,3.42
2022-12-03T01:35:40.577Z,3.35
2022-12-03T01:36:12.157Z,3.41
2022-12-03T01:36:43.816Z,3.33
2022-12-03T01:37:16.166Z,3.31
2022-12-03T01:37:47.770Z,3.33
2022-12-03T01:38:19.491Z,3.28
2022-12-03T01:38:51.124Z,3.26
2022-12-03T01:39:22.764Z,3.27
2022-12-03T01:39:54.654Z,3.26
2022-12-03T01:40:26.298Z,3.23
2022-12-03T01:40:57.878Z,3.23
2022-12-03T01:41:29.837Z,3.26
2022-12-03T01:42:02.295Z,3.30
2022-12-03T01:42:39.364Z,3.28
2022-12-03T01:43:10.966Z,3.27
2022-12-03T01:43:43.521Z,3.31
2022-12-03T01:44:18.482Z,3.27
2022-12-03T01:44:52.973Z,3.28
2022-12-03T01:45:24.918Z,3.28
2022-12-03T01:45:56.569Z,3.27
2022-12-03T01:46:48.990Z,3.24
2022-12-03T01:47:24.601Z,3.21
2022-12-03T01:47:56.241Z,3.14
2022-12-03T01:48:32.345Z,3.26
2022-12-03T01:49:04.063Z,3.21
2022-12-03T01:49:38.438Z,3.21
2022-12-03T01:50:36.664Z,3.23
2022-12-03T01:51:08.308Z,3.28
2022-12-03T01:51:39.906Z,3.26
2022-12-03T01:52:17.373Z,3.28
2022-12-03T01:52:49.269Z,3.30
2022-12-03T01:53:20.923Z,3.31
2022-12-03T01:53:52.472Z,3.23
2022-12-03T01:54:37.319Z,3.24
2022-12-03T01:55:15.222Z,3.23
2022-12-03T01:55:49.081Z,3.27
2022-12-03T01:56:20.788Z,3.30
2022-12-03T01:56:53.797Z,3.27
2022-12-03T01:57:27.203Z,3.26
2022-12-03T01:58:02.348Z,3.23
2022-12-03T01:58:33.950Z,3.27
2022-12-03T01:59:05.597Z,3.31
2022-12-03T01:59:38.651Z,3.26
2022-12-03T02:01:10.565Z,3.31
2022-12-03T02:01:42.523Z,3.30
2022-12-03T02:02:21.269Z,3.27
2022-12-03T02:02:58.269Z,3.30
2022-12-03T02:03:29.931Z,3.30
2022-12-03T02:04:01.533Z,3.23
2022-12-03T02:04:33.365Z,3.16
2022-12-03T02:05:32.951Z,3.23
2022-12-03T02:06:04.761Z,3.30
2022-12-03T02:06:36.329Z,3.40
2022-12-03T02:07:25.040Z,3.28
2022-12-03T02:07:58.155Z,3.26
2022-12-03T02:08:31.356Z,3.26
2022-12-03T02:09:02.945Z,3.23
2022-12-03T02:09:34.525Z,3.21
2022-12-03T02:10:06.705Z,3.24
2022-12-03T02:10:38.635Z,3.24
2022-12-03T02:11:30.017Z,3.28
2022-12-03T02:12:01.621Z,3.33
2022-12-03T02:12:46.503Z,3.41
2022-12-03T02:13:18.267Z,3.48
2022-12-03T02:13:55.541Z,3.50
2022-12-03T02:14:27.118Z,3.38
2022-12-03T02:14:59.330Z,3.34
2022-12-03T02:15:30.885Z,3.24
2022-12-03T02:16:03.943Z,3.35
2022-12-03T02:16:37.297Z,3.35
2022-12-03T02:17:09.151Z,3.31
2022-12-03T02:17:40.928Z,3.38
2022-12-03T02:18:12.741Z,3.37
2022-12-03T02:18:44.523Z,3.30
2022-12-03T02:19:26.782Z,3.34
2022-12-03T02:20:00.058Z,3.41
2022-12-03T02:20:37.426Z,3.40
2022-12-03T02:21:32.705Z,3.35
2022-12-03T02:22:16.149Z,3.31
2022-12-03T02:22:47.709Z,3.31
2022-12-03T02:23:36.056Z,3.37
2022-12-03T02:24:23.844Z,3.28
2022-12-03T02:25:15.921Z,3.31
2022-12-03T02:25:47.750Z,3.30
2022-12-03T02:26:19.590Z,3.28
2022-12-03T02:26:51.223Z,3.30
2022-12-03T02:27:23.270Z,3.23
2022-12-03T02:27:55.940Z,3.23
2022-12-03T02:28:27.581Z,3.31
2022-12-03T02:28:59.453Z,3.33
2022-12-03T02:29:31.249Z,3.38
2022-12-03T02:30:05.584Z,3.40
2022-12-03T02:30:37.382Z,3.34
2022-12-03T02:31:09.093Z,3.33
2022-12-03T02:31:40.888Z,3.30
2022-12-03T02:32:12.491Z,3.28
2022-12-03T02:32:44.223Z,3.23
2022-12-03T02:33:15.814Z,3.23
2022-12-03T02:33:47.442Z,3.27
2022-12-03T02:34:39.490Z,3.31
2022-12-03T02:35:19.822Z,3.35
2022-12-03T02:35:51.393Z,3.37
2022-12-03T02:36:23.349Z,3.34
2022-12-03T02:36:55.040Z,3.30
2022-12-03T02:37:30.830Z,3.31
2022-12-03T02:38:26.132Z,3.31
2022-12-03T02:38:57.851Z,3.38
2022-12-03T02:39:29.595Z,3.33
2022-12-03T02:40:06.682Z,3.34
2022-12-03T02:40:38.665Z,3.30
2022-12-03T02:41:33.939Z,3.33
2022-12-03T02:42:24.985Z,3.35
2022-12-03T02:42:59.709Z,3.35
2022-12-03T02:43:31.542Z,3.35
2022-12-03T02:44:06.175Z,3.31
2022-12-03T02:44:38.012Z,3.24
2022-12-03T02:45:20.100Z,3.26
2022-12-03T02:45:55.131Z,3.37
2022-12-03T02:46:26.831Z,3.37
2022-12-03T02:46:58.500Z,3.37
2022-12-03T02:47:31.861Z,3.28
2022-12-03T02:48:09.696Z,3.28
2022-12-03T02:48:41.935Z,3.40
2022-12-03T02:49:13.691Z,3.33
2022-12-03T02:49:45.479Z,3.37
2022-12-03T02:50:22.060Z,3.40
2022-12-03T02:51:00.262Z,3.42
2022-12-03T02:51:32.941Z,3.33
2022-12-03T02:52:04.735Z,3.24
2022-12-03T02:52:37.134Z,3.23
2022-12-03T02:53:19.187Z,3.28
2022-12-03T02:53:53.482Z,3.23
2022-12-03T02:54:25.363Z,3.27
2022-12-03T02:54:57.249Z,3.26
2022-12-03T02:55:36.309Z,3.24
2022-12-03T02:56:09.522Z,3.28
2022-12-03T02:56:41.260Z,3.26
2022-12-03T02:57:13.100Z,3.26
2022-12-03T02:57:47.895Z,3.23
2022-12-03T02:58:19.655Z,3.28
2022-12-03T02:58:54.984Z,3.30
2022-12-03T02:59:26.604Z,3.26
2022-12-03T02:59:58.395Z,3.16
2022-12-03T03:00:30.298Z,3.19
2022-12-03T03:01:04.209Z,3.27
2022-12-03T03:01:36.037Z,3.26
2022-12-03T03:02:07.945Z,3.24
2022-12-03T03:02:41.287Z,3.26
2022-12-03T03:03:13.423Z,3.26
2022-12-03T03:03:47.265Z,3.28
2022-12-03T03:04:19.191Z,3.26
2022-12-03T03:04:51.410Z,3.21
2022-12-03T03:05:24.191Z,3.23
2022-12-03T03:05:56.826Z,3.27
2022-12-03T03:06:28.798Z,3.16
2022-12-03T03:07:00.406Z,3.21
2022-12-03T03:07:32.036Z,3.17
2022-12-03T03:08:04.952Z,3.14
2022-12-03T03:08:39.310Z,3.14
2022-12-03T03:09:10.974Z,3.17
2022-12-03T03:09:42.616Z,3.21
2022-12-03T03:10:16.985Z,3.27
2022-12-03T03:10:49.404Z,3.23
2022-12-03T03:11:21.034Z,3.26
2022-12-03T03:11:52.590Z,3.30
2022-12-03T03:12:24.173Z,3.30
2022-12-03T03:12:56.412Z,3.31
2022-12-03T03:13:31.134Z,3.26
2022-12-03T03:14:03.581Z,3.30
2022-12-03T03:14:35.702Z,3.30
2022-12-03T03:15:09.362Z,3.27
2022-12-03T03:15:41.909Z,3.28
2022-12-03T03:16:13.684Z,3.28
2022-12-03T03:16:45.368Z,3.30
2022-12-03T03:17:17.175Z,3.27
2022-12-03T03:17:48.940Z,3.28
2022-12-03T03:18:20.606Z,3.33
2022-12-03T03:18:52.254Z,3.34
2022-12-03T03:19:26.987Z,3.31
2022-12-03T03:19:58.673Z,3.30
2022-12-03T03:20:30.268Z,3.27
2022-12-03T03:21:02.302Z,3.23
2022-12-03T03:21:34.020Z,3.20
2022-12-03T03:22:05.788Z,3.21
2022-12-03T03:22:40.450Z,3.24
2022-12-03T03:23:11.982Z,3.28
2022-12-03T03:23:43.656Z,3.31
2022-12-03T03:24:15.716Z,3.31
2022-12-03T03:24:47.326Z,3.30
2022-12-03T03:25:21.376Z,3.27
2022-12-03T03:26:08.873Z,3.28
2022-12-03T03:26:40.468Z,3.27
2022-12-03T03:27:12.094Z,3.34
2022-12-03T03:27:44.982Z,3.37
2022-12-03T03:28:16.934Z,3.37
2022-12-03T03:28:51.282Z,3.33
2022-12-03T03:29:22.906Z,3.30
2022-12-03T03:29:56.262Z,3.28
2022-12-03T03:30:28.203Z,3.26
2022-12-03T03:31:02.931Z,3.31
2022-12-03T03:31:34.947Z,3.24
2022-12-03T03:32:06.820Z,3.26
2022-12-03T03:32:40.095Z,3.26
2022-12-03T03:33:13.630Z,3.27
2022-12-03T03:33:49.218Z,3.31
2022-12-03T03:34:21.063Z,3.21
2022-12-03T03:34:53.274Z,3.19
2022-12-03T03:35:25.656Z,3.20
2022-12-03T03:35:57.598Z,3.19
2022-12-03T03:36:29.230Z,3.23
2022-12-03T03:37:00.979Z,3.23
2022-12-03T03:37:32.691Z,3.24
2022-12-03T03:38:05.282Z,3.28
2022-12-03T03:38:38.122Z,3.26
2022-12-03T03:39:09.997Z,3.30
2022-12-03T03:39:41.667Z,3.24
2022-12-03T03:40:13.861Z,3.14
2022-12-03T03:40:46.810Z,3.13
2022-12-03T03:41:19.838Z,3.10
2022-12-03T03:41:51.589Z,3.10
2022-12-03T03:42:23.859Z,3.17
2022-12-03T03:42:56.207Z,3.13
2022-12-03T03:43:29.671Z,3.04
2022-12-03T03:44:01.870Z,3.04
2022-12-03T03:44:33.590Z,3.06
2022-12-03T03:45:07.221Z,3.06
2022-12-03T03:45:39.087Z,3.10
2022-12-03T03:46:11.790Z,3.10
2022-12-03T03:46:43.620Z,3.16
2022-12-03T03:47:16.242Z,3.13
2022-12-03T03:47:47.998Z,3.16
2022-12-03T03:48:20.242Z,3.20
2022-12-03T03:48:52.276Z,3.24
2022-12-03T03:49:24.077Z,3.21
2022-12-03T03:49:55.820Z,3.17
2022-12-03T03:50:29.446Z,3.27
2022-12-03T03:51:03.741Z,3.23
2022-12-03T03:51:38.082Z,3.24
2022-12-03T03:52:11.743Z,3.26
2022-12-03T03:52:44.361Z,3.23
2022-12-03T03:53:17.199Z,3.31
2022-12-03T03:53:49.572Z,3.27
2022-12-03T03:54:22.777Z,3.27
2022-12-03T03:54:54.485Z,3.27
2022-12-03T03:55:26.687Z,3.26
2022-12-03T03:55:58.274Z,3.26
2022-12-03T03:56:30.258Z,3.24
2022-12-03T03:57:01.962Z,3.16
2022-12-03T03:57:33.832Z,3.21
2022-12-03T03:58:05.639Z,3.20
2022-12-03T03:58:38.196Z,3.14
2022-12-03T03:59:09.861Z,3.19
2022-12-03T03:59:41.737Z,3.21
2022-12-03T04:00:13.801Z,3.23
2022-12-03T04:00:46.129Z,3.20
2022-12-03T04:01:18.463Z,3.10
2022-12-03T04:01:50.111Z,3.06
2022-12-03T04:02:24.235Z,3.09
2022-12-03T04:02:55.841Z,3.11
2022-12-03T04:03:28.791Z,3.20
2022-12-03T04:04:00.704Z,3.24
2022-12-03T04:04:36.594Z,3.28
2022-12-03T04:05:16.851Z,3.26
2022-12-03T04:05:50.997Z,3.30
2022-12-03T04:06:22.720Z,3.33
2022-12-03T04:06:54.328Z,3.27
2022-12-03T04:07:26.017Z,3.27
2022-12-03T04:07:58.905Z,3.28
2022-12-03T04:08:30.963Z,3.30
2022-12-03T04:09:02.588Z,3.33
2022-12-03T04:09:34.175Z,3.35
2022-12-03T04:10:26.429Z,3.37
2022-12-03T04:11:16.338Z,3.28
2022-12-03T04:12:06.190Z,3.27
2022-12-03T04:12:55.858Z,3.24
2022-12-03T04:13:27.496Z,3.28
2022-12-03T04:13:59.080Z,3.34
2022-12-03T04:14:30.666Z,3.30
2022-12-03T04:15:02.423Z,3.33
2022-12-03T04:15:34.598Z,3.34
2022-12-03T04:16:06.452Z,3.35
2022-12-03T04:16:39.226Z,3.42
2022-12-03T04:17:10.910Z,3.34
2022-12-03T04:17:42.459Z,3.30
2022-12-03T04:18:32.449Z,3.34
2022-12-03T04:19:04.006Z,3.35
2022-12-03T04:19:35.592Z,3.38
2022-12-03T04:20:07.327Z,3.35
2022-12-03T04:20:38.917Z,3.37
2022-12-03T04:21:37.095Z,3.40
2022-12-03T04:22:27.194Z,3.37
2022-12-03T04:22:58.782Z,3.37
2022-12-03T04:23:31.105Z,3.34
2022-12-03T04:24:03.607Z,3.28
2022-12-03T04:24:35.143Z,3.35
2022-12-03T04:25:27.827Z,3.37
2022-12-03T04:26:17.782Z,3.34
2022-12-03T04:27:07.711Z,3.34
2022-12-03T04:27:57.589Z,3.45
2022-12-03T04:28:47.513Z,3.45
2022-12-03T04:29:19.690Z,3.50
2022-12-03T04:29:51.242Z,3.38
2022-12-03T04:30:22.931Z,3.47
2022-12-03T04:30:54.696Z,3.54
2022-12-03T04:31:44.686Z,3.55
2022-12-03T04:32:54.430Z,3.58
2022-12-03T04:33:44.971Z,3.61
2022-12-03T04:34:35.235Z,3.51
2022-12-03T04:35:25.993Z,3.45
2022-12-03T04:35:58.670Z,3.38
2022-12-03T04:36:30.291Z,3.38
2022-12-03T04:37:02.310Z,3.33
2022-12-03T04:37:33.901Z,3.27
2022-12-03T04:38:05.439Z,3.31
2022-12-03T04:38:37.051Z,3.35
2022-12-03T04:39:08.622Z,3.34
2022-12-03T04:39:40.291Z,3.38
2022-12-03T04:40:30.578Z,3.47
2022-12-03T04:41:03.927Z,3.41
2022-12-03T04:41:35.595Z,3.33
2022-12-03T04:42:07.760Z,3.40
2022-12-03T04:42:39.299Z,3.33
2022-12-03T04:43:10.843Z,3.33
2022-12-03T04:44:02.404Z,3.35
2022-12-03T04:44:37.461Z,3.34
2022-12-03T04:45:09.427Z,3.37
2022-12-03T04:45:40.994Z,3.38
2022-12-03T04:46:12.693Z,3.37
2022-12-03T04:46:44.470Z,3.34
2022-12-03T04:47:18.781Z,3.42
2022-12-03T04:47:50.420Z,3.41
2022-12-03T04:48:22.013Z,3.42
2022-12-03T04:48:53.632Z,3.47
2022-12-03T04:49:25.222Z,3.44
2022-12-03T04:49:56.808Z,3.40
2022-12-03T04:50:28.394Z,3.30
2022-12-03T04:50:59.949Z,3.30
2022-12-03T04:51:31.488Z,3.30
2022-12-03T04:52:03.472Z,3.35
2022-12-03T04:52:35.017Z,3.41
2022-12-03T04:53:06.623Z,3.41
2022-12-03T04:53:43.257Z,3.38
2022-12-03T04:54:17.892Z,3.34
2022-12-03T04:54:49.559Z,3.30
2022-12-03T04:55:21.105Z,3.35
2022-12-03T04:55:52.747Z,3.37
2022-12-03T04:56:24.389Z,3.31
2022-12-03T04:56:56.140Z,3.33
2022-12-03T04:57:27.722Z,3.40
2022-12-03T04:57:59.527Z,3.44
2022-12-03T04:58:31.074Z,3.48
2022-12-03T04:59:02.682Z,3.55
2022-12-03T04:59:35.424Z,3.40
2022-12-03T05:00:07.674Z,3.41
2022-12-03T05:00:39.332Z,3.41
2022-12-03T05:01:10.907Z,3.44
2022-12-03T05:01:42.623Z,3.41
2022-12-03T05:02:14.322Z,3.42
2022-12-03T05:02:45.978Z,3.42
2022-12-03T05:03:17.587Z,3.37
2022-12-03T05:03:49.207Z,3.35
2022-12-03T05:04:20.830Z,3.41
2022-12-03T05:04:52.756Z,3.45
2022-12-03T05:05:24.478Z,3.48
2022-12-03T05:05:56.067Z,3.44
2022-12-03T05:06:27.647Z,3.50
2022-12-03T05:06:59.229Z,3.55
2022-12-03T05:07:30.884Z,3.51
2022-12-03T05:08:02.605Z,3.54
2022-12-03T05:08:34.270Z,3.45
2022-12-03T05:09:06.019Z,3.30
2022-12-03T05:09:37.559Z,3.35
2022-12-03T05:10:10.962Z,3.33
2022-12-03T05:10:42.562Z,3.33
2022-12-03T05:11:14.446Z,3.38
2022-12-03T05:11:46.044Z,3.35
2022-12-03T05:12:17.598Z,3.34
2022-12-03T05:12:49.169Z,3.33
2022-12-03T05:13:20.763Z,3.34
2022-12-03T05:13:52.564Z,3.24
2022-12-03T05:14:24.147Z,3.16
2022-12-03T05:14:56.122Z,3.16
2022-12-03T05:15:27.864Z,3.17
2022-12-03T05:15:59.461Z,3.26
2022-12-03T05:16:31.217Z,3.24
2022-12-03T05:17:02.939Z,3.21
2022-12-03T05:17:34.663Z,3.20
2022-12-03T05:18:06.223Z,3.23
2022-12-03T05:18:37.847Z,3.14
2022-12-03T05:19:09.971Z,3.07
2022-12-03T05:20:00.211Z,3.13
2022-12-03T05:20:47.149Z,3.09
2022-12-03T05:21:24.497Z,3.19
2022-12-03T05:21:56.080Z,3.11
2022-12-03T05:22:27.667Z,3.10
2022-12-03T05:22:59.287Z,3.09
2022-12-03T05:23:30.866Z,3.06
2022-12-03T05:24:02.522Z,3.10
2022-12-03T05:24:34.134Z,3.10
2022-12-03T05:25:06.466Z,3.14
2022-12-03T05:25:38.126Z,3.14
2022-12-03T05:26:10.191Z,3.13
2022-12-03T05:26:41.780Z,3.13
2022-12-03T05:27:13.337Z,3.06
2022-12-03T05:27:44.921Z,3.10
2022-12-03T05:28:16.897Z,3.03
2022-12-03T05:28:48.676Z,3.03
2022-12-03T05:29:20.235Z,3.02
2022-12-03T05:29:52.154Z,3.02
2022-12-03T05:30:23.859Z,3.04
2022-12-03T05:30:55.634Z,3.02
2022-12-03T05:31:27.379Z,2.95
2022-12-03T05:31:58.985Z,2.83
2022-12-03T05:32:30.529Z,2.79
2022-12-03T05:33:02.216Z,2.90
2022-12-03T05:33:33.934Z,2.93
2022-12-03T05:34:06.012Z,2.93
2022-12-03T05:34:37.566Z,2.96
2022-12-03T05:35:10.647Z,2.88
2022-12-03T05:35:42.288Z,2.97
2022-12-03T05:36:13.951Z,2.97
2022-12-03T05:36:45.541Z,2.89
2022-12-03T05:37:17.222Z,2.83
2022-12-03T05:37:48.799Z,2.85
2022-12-03T05:38:20.367Z,2.88
2022-12-03T05:38:51.922Z,2.90
2022-12-03T05:39:23.481Z,2.86
2022-12-03T05:39:55.080Z,2.95
2022-12-03T05:40:26.695Z,2.88
2022-12-03T05:40:58.273Z,2.86
2022-12-03T05:41:48.246Z,2.90
2022-12-03T05:42:38.570Z,2.90
2022-12-03T05:43:10.235Z,3.00
2022-12-03T05:43:41.839Z,3.09
2022-12-03T05:44:18.854Z,3.04
2022-12-03T05:44:52.212Z,2.99
2022-12-03T05:45:30.490Z,2.95
2022-12-03T05:46:02.073Z,2.89
2022-12-03T05:46:33.827Z,2.96
2022-12-03T05:47:05.430Z,2.93
2022-12-03T05:47:37.053Z,3.00
2022-12-03T05:48:11.592Z,2.99
2022-12-03T05:48:43.170Z,3.04
2022-12-03T05:49:14.711Z,3.04
2022-12-03T05:49:46.611Z,3.10
2022-12-03T05:50:18.791Z,3.13
2022-12-03T05:50:50.341Z,3.13
2022-12-03T05:51:21.912Z,3.14
2022-12-03T05:51:58.253Z,3.20
2022-12-03T05:52:30.363Z,3.20
2022-12-03T05:53:02.265Z,3.23
2022-12-03T05:53:33.919Z,3.19
2022-12-03T05:54:05.516Z,3.20
2022-12-03T05:54:37.072Z,3.16
2022-12-03T05:55:09.455Z,3.14
2022-12-03T05:55:41.165Z,3.17
2022-12-03T05:56:12.721Z,3.16
2022-12-03T05:56:44.282Z,3.19
2022-12-03T05:57:15.867Z,3.16
2022-12-03T05:57:47.886Z,3.17
2022-12-03T05:58:19.444Z,3.09
2022-12-03T05:58:50.989Z,3.07
2022-12-03T05:59:22.546Z,3.04
2022-12-03T05:59:54.121Z,3.13
2022-12-03T06:00:28.999Z,3.11
2022-12-03T06:01:00.579Z,3.14
2022-12-03T06:01:32.156Z,3.13
2022-12-03T06:02:04.307Z,3.17
2022-12-03T06:02:36.030Z,3.14
2022-12-03T06:03:08.202Z,3.19
2022-12-03T06:03:39.915Z,3.10
2022-12-03T06:04:11.549Z,3.06
2022-12-03T06:04:43.133Z,2.97
2022-12-03T06:05:16.102Z,2.99
2022-12-03T06:05:47.747Z,2.97
2022-12-03T06:06:19.337Z,2.96
2022-12-03T06:06:50.922Z,3.00
2022-12-03T06:07:22.523Z,2.97
2022-12-03T06:07:54.172Z,2.99
2022-12-03T06:08:25.849Z,3.07
2022-12-03T06:08:57.534Z,2.97
2022-12-03T06:09:29.084Z,2.93
2022-12-03T06:10:00.721Z,2.89
2022-12-03T06:10:32.590Z,2.89
2022-12-03T06:11:04.245Z,2.93
2022-12-03T06:11:37.135Z,2.93
2022-12-03T06:12:11.498Z,2.95
2022-12-03T06:12:43.182Z,2.96
2022-12-03T06:13:14.812Z,2.99
2022-12-03T06:13:46.514Z,3.02
2022-12-03T06:14:18.139Z,2.96
2022-12-03T06:14:49.726Z,2.97
2022-12-03T06:15:21.679Z,2.95
2022-12-03T06:15:53.278Z,2.92
2022-12-03T06:16:24.999Z,2.92
2022-12-03T06:16:56.637Z,2.93
2022-12-03T06:17:28.281Z,2.83
2022-12-03T06:17:59.889Z,2.79
2022-12-03T06:18:31.448Z,2.81
2022-12-03T06:19:03.038Z,2.83
2022-12-03T06:19:34.682Z,2.83
2022-12-03T06:20:07.524Z,2.83
2022-12-03T06:20:39.524Z,2.85
2022-12-03T06:21:11.288Z,2.86
2022-12-03T06:21:42.893Z,2.82
2022-12-03T06:22:14.514Z,2.82
2022-12-03T06:22:46.972Z,2.92
2022-12-03T06:23:18.590Z,2.95
2022-12-03T06:23:50.199Z,2.97
2022-12-03T06:24:21.789Z,2.97
2022-12-03T06:24:53.932Z,2.97
2022-12-03T06:25:25.806Z,2.97
2022-12-03T06:25:57.356Z,3.04
2022-12-03T06:26:30.175Z,3.03
2022-12-03T06:27:01.763Z,3.04
2022-12-03T06:27:33.384Z,3.02
2022-12-03T06:28:05.198Z,3.03
2022-12-03T06:28:36.814Z,3.06
2022-12-03T06:29:08.395Z,3.06
2022-12-03T06:29:40.041Z,3.00
2022-12-03T06:30:13.137Z,3.00
2022-12-03T06:30:44.805Z,2.97
2022-12-03T06:31:16.524Z,3.03
2022-12-03T06:31:48.147Z,3.04
2022-12-03T06:32:19.726Z,3.06
2022-12-03T06:32:51.333Z,3.13
2022-12-03T06:33:23.001Z,3.09
2022-12-03T06:33:54.545Z,3.07
2022-12-03T06:34:26.116Z,3.10
2022-12-03T06:34:57.687Z,3.07
2022-12-03T06:35:29.323Z,3.03
2022-12-03T06:36:00.913Z,3.09
2022-12-03T06:36:32.551Z,3.07
2022-12-03T06:37:04.157Z,3.00
2022-12-03T06:37:35.773Z,3.10
2022-12-03T06:38:07.370Z,3.11
2022-12-03T06:38:38.970Z,3.07
2022-12-03T06:39:10.572Z,3.13
2022-12-03T06:39:42.122Z,3.07
2022-12-03T06:40:14.138Z,3.09
2022-12-03T06:40:45.786Z,3.06
2022-12-03T06:41:17.362Z,3.03
2022-12-03T06:41:49.121Z,3.02
2022-12-03T06:42:20.703Z,3.10
2022-12-03T06:42:52.555Z,3.07
2022-12-03T06:43:24.127Z,3.07
2022-12-03T06:43:55.702Z,3.07
2022-12-03T06:44:27.363Z,3.07
2022-12-03T06:44:58.945Z,3.10
2022-12-03T06:45:30.571Z,3.14
2022-12-03T06:46:02.169Z,3.17
2022-12-03T06:46:33.839Z,3.17
2022-12-03T06:47:05.442Z,3.09
2022-12-03T06:47:37.603Z,3.14
2022-12-03T06:48:09.155Z,3.09
2022-12-03T06:48:40.732Z,3.09
2022-12-03T06:49:12.347Z,3.09
2022-12-03T06:49:43.921Z,3.04
2022-12-03T06:50:15.584Z,3.13
2022-12-03T06:50:47.135Z,3.07
2022-12-03T06:51:18.740Z,3.16
2022-12-03T06:51:50.299Z,3.17
2022-12-03T06:52:21.913Z,3.23
2022-12-03T06:52:53.511Z,3.21
2022-12-03T06:53:25.111Z,3.21
2022-12-03T06:53:56.710Z,3.24
2022-12-03T06:54:28.359Z,3.26
2022-12-03T06:55:00.096Z,3.30
2022-12-03T06:55:31.802Z,3.27
2022-12-03T06:56:03.592Z,3.37
2022-12-03T06:56:41.720Z,3.41
2022-12-03T06:57:16.506Z,3.40
2022-12-03T06:57:48.202Z,3.40
2022-12-03T06:58:19.843Z,3.41
2022-12-03T06:58:51.410Z,3.35
2022-12-03T06:59:22.993Z,3.40
2022-12-03T06:59:54.945Z,3.40
2022-12-03T07:00:26.664Z,3.45
2022-12-03T07:00:58.255Z,3.42
2022-12-03T07:01:29.878Z,3.41
2022-12-03T07:02:01.584Z,3.38
2022-12-03T07:02:33.338Z,3.42
2022-12-03T07:03:05.029Z,3.44
2022-12-03T07:03:36.687Z,3.44
2022-12-03T07:04:08.257Z,3.44
2022-12-03T07:04:44.692Z,3.40
2022-12-03T07:05:17.810Z,3.42
2022-12-03T07:05:49.390Z,3.44
2022-12-03T07:06:21.406Z,3.37
2022-12-03T07:06:52.960Z,3.40
2022-12-03T07:07:24.613Z,3.44
2022-12-03T07:07:56.260Z,3.41
2022-12-03T07:08:28.025Z,3.42
2022-12-03T07:08:59.612Z,3.51
2022-12-03T07:09:31.194Z,3.51
2022-12-03T07:10:03.268Z,3.55
2022-12-03T07:10:34.835Z,3.61
2022-12-03T07:11:26.676Z,3.62
2022-12-03T07:11:58.274Z,3.61
2022-12-03T07:12:30.279Z,3.58
2022-12-03T07:13:02.270Z,3.64
2022-12-03T07:13:33.816Z,3.68
2022-12-03T07:14:07.806Z,3.68
2022-12-03T07:14:39.415Z,3.72
2022-12-03T07:15:11.124Z,3.70
2022-12-03T07:15:42.762Z,3.74
2022-12-03T07:16:14.447Z,3.68
2022-12-03T07:16:46.144Z,3.68
2022-12-03T07:17:17.766Z,3.68
2022-12-03T07:17:49.367Z,3.75
2022-12-03T07:18:20.941Z,3.68
2022-12-03T07:18:52.558Z,3.71
2022-12-03T07:19:29.046Z,3.74
2022-12-03T07:20:04.947Z,3.67
2022-12-03T07:20:36.735Z,3.68
2022-12-03T07:21:08.290Z,3.64
2022-12-03T07:21:39.969Z,3.65
2022-12-03T07:22:11.618Z,3.72
2022-12-03T07:22:43.200Z,3.75
2022-12-03T07:23:14.775Z,3.74
2022-12-03T07:23:46.352Z,3.75